Littcarr, Kentucky
Current Conditions -  °F | °C
As of 5:15 AM on Monday 26 Jan 2015 (Local Time) from KLNP Reporting Station
Overcast Overcast  
Wind Chill: 33°   Ceiling: 700
Heat Index: 37°   Visibility: 10mi
Dew Point: 37°   Wind: 6mph
Humidity: 100%   Direction: 230°SW
Pressure: 29.61"   Gusts: NA
Location:  37.25°N, 82.96°W
Report Text: KLNP 261015Z AUTO 23005KT 10SM BKN007 OVC014 03/03 A2961 RMK AO2
Loading
Personal Weather Stations






























Interactive Weather Map New forecast layout! Learn more

10-Day Weather Forecast

Advertisements
Track Severe Weather on mobile